createdAt,value
2022-11-05T00:01:39.340Z,86.66
2022-11-05T00:05:00.737Z,87.07
2022-11-05T00:08:23.630Z,87.13
2022-11-05T00:11:46.139Z,87.27
2022-11-05T00:15:07.039Z,87.18
2022-11-05T00:18:09.516Z,87.62
2022-11-05T00:21:40.656Z,87.02
2022-11-05T00:25:01.580Z,87.01
2022-11-05T00:28:04.102Z,87.24
2022-11-05T00:31:09.926Z,87.47
2022-11-05T00:34:12.157Z,87.80
2022-11-05T00:37:14.676Z,87.91
2022-11-05T00:40:17.571Z,87.85
2022-11-05T00:43:38.561Z,87.37
2022-11-05T00:46:40.758Z,87.71
2022-11-05T00:49:43.247Z,87.53
2022-11-05T00:52:56.056Z,87.77
2022-11-05T00:55:58.629Z,87.82
2022-11-05T00:59:00.888Z,87.17
2022-11-05T01:02:03.493Z,86.81
2022-11-05T01:05:06.259Z,87.42
2022-11-05T01:08:09.867Z,87.61
2022-11-05T01:11:33.084Z,87.71
2022-11-05T01:14:36.133Z,87.42
2022-11-05T01:17:38.298Z,87.72
2022-11-05T01:20:40.955Z,87.69
2022-11-05T01:23:43.131Z,87.44
2022-11-05T01:26:45.614Z,87.86
2022-11-05T01:29:47.847Z,88.41
2022-11-05T01:32:50.540Z,88.17
2022-11-05T01:35:53.461Z,88.32
2022-11-05T01:38:55.997Z,88.16
2022-11-05T01:41:58.873Z,88.52
2022-11-05T01:45:12.467Z,88.80
2022-11-05T01:48:18.655Z,88.39
2022-11-05T01:51:26.113Z,88.64
2022-11-05T01:54:31.927Z,88.58
2022-11-05T01:57:34.641Z,88.30
2022-11-05T02:00:40.954Z,88.73
2022-11-05T02:03:46.694Z,88.34
2022-11-05T02:06:49.191Z,88.58
2022-11-05T02:10:01.924Z,86.91
2022-11-05T02:13:04.540Z,87.53
2022-11-05T02:16:27.162Z,88.11
2022-11-05T02:19:51.449Z,87.89
2022-11-05T02:23:08.383Z,87.62
2022-11-05T02:26:32.634Z,87.88
2022-11-05T02:29:55.943Z,88.20
2022-11-05T02:33:01.383Z,88.31
2022-11-05T02:36:13.507Z,88.25
2022-11-05T02:39:15.972Z,88.66
2022-11-05T02:42:33.675Z,88.78
2022-11-05T02:45:42.235Z,88.52
2022-11-05T02:48:52.124Z,88.42
2022-11-05T02:52:01.300Z,88.54
2022-11-05T02:55:22.799Z,88.60
2022-11-05T02:58:28.875Z,88.54
2022-11-05T03:01:31.322Z,88.73
2022-11-05T03:04:33.965Z,88.58
2022-11-05T03:07:53.323Z,88.81
2022-11-05T03:11:29.834Z,88.50
2022-11-05T03:14:58.529Z,88.86
2022-11-05T03:18:04.021Z,88.92
2022-11-05T03:21:21.892Z,89.02
2022-11-05T03:24:30.301Z,89.06
2022-11-05T03:27:37.101Z,89.36
2022-11-05T03:30:42.670Z,88.92
2022-11-05T03:33:46.709Z,88.96
2022-11-05T03:36:54.616Z,88.99
2022-11-05T03:40:00.432Z,88.76
2022-11-05T03:43:07.392Z,88.79
2022-11-05T03:46:15.008Z,88.08
2022-11-05T03:49:25.697Z,87.62
2022-11-05T03:52:33.299Z,87.44
2022-11-05T03:55:59.328Z,87.25
2022-11-05T03:59:02.896Z,87.07
2022-11-05T04:02:05.700Z,87.48
2022-11-05T04:05:08.410Z,87.12
2022-11-05T04:08:29.358Z,87.12
2022-11-05T04:11:50.789Z,86.83
2022-11-05T04:14:52.978Z,87.33
2022-11-05T04:17:58.785Z,86.94
2022-11-05T04:21:19.845Z,87.32
2022-11-05T04:24:22.326Z,87.19
2022-11-05T04:27:24.642Z,87.29
2022-11-05T04:30:27.437Z,87.47
2022-11-05T04:33:29.695Z,87.44
2022-11-05T04:36:32.352Z,87.21
2022-11-05T04:39:34.537Z,86.99
2022-11-05T04:42:37.088Z,87.08
2022-11-05T04:45:39.356Z,87.12
2022-11-05T04:48:41.925Z,87.11
2022-11-05T04:51:44.144Z,87.44
2022-11-05T04:54:46.670Z,87.23
2022-11-05T04:57:49.898Z,87.23
2022-11-05T05:00:52.605Z,86.70
2022-11-05T05:03:55.140Z,86.98
2022-11-05T05:06:57.671Z,86.39
2022-11-05T05:10:01.641Z,86.62
2022-11-05T05:13:04.101Z,86.20
2022-11-05T05:16:08.278Z,86.57
2022-11-05T05:19:10.754Z,86.96
2022-11-05T05:22:12.970Z,86.28
2022-11-05T05:25:15.534Z,86.44
2022-11-05T05:28:17.725Z,85.88
2022-11-05T05:31:21.002Z,85.69
2022-11-05T05:34:23.192Z,86.01
2022-11-05T05:37:25.751Z,85.55
2022-11-05T05:40:27.995Z,86.10
2022-11-05T05:43:32.111Z,86.13
2022-11-05T05:46:34.465Z,85.89
2022-11-05T05:49:36.982Z,86.24
2022-11-05T05:52:39.168Z,86.03
2022-11-05T05:55:41.635Z,85.93
2022-11-05T05:58:43.867Z,86.06
2022-11-05T06:01:46.539Z,85.87
2022-11-05T06:04:49.099Z,85.45
2022-11-05T06:07:57.870Z,85.92
2022-11-05T06:11:01.644Z,85.33
2022-11-05T06:14:03.953Z,85.02
2022-11-05T06:17:09.685Z,85.69
2022-11-05T06:20:15.040Z,84.72
2022-11-05T06:23:17.508Z,85.46
2022-11-05T06:26:20.105Z,84.62
2022-11-05T06:29:22.589Z,84.39
2022-11-05T06:32:24.885Z,84.34
2022-11-05T06:35:27.319Z,84.36
2022-11-05T06:38:32.876Z,84.23
2022-11-05T06:41:45.610Z,83.82
2022-11-05T06:44:57.609Z,83.92
2022-11-05T06:48:00.132Z,84.20
2022-11-05T06:51:03.477Z,84.27
2022-11-05T06:54:06.267Z,84.63
2022-11-05T06:57:09.980Z,84.78
2022-11-05T07:00:12.834Z,84.56
2022-11-05T07:03:15.317Z,84.48
2022-11-05T07:06:17.994Z,84.47
2022-11-05T07:09:20.253Z,84.33
2022-11-05T07:12:22.703Z,84.36
2022-11-05T07:15:25.023Z,83.89
2022-11-05T07:18:27.533Z,83.77
2022-11-05T07:21:29.751Z,83.39
2022-11-05T07:24:32.321Z,83.57
2022-11-05T07:27:39.538Z,83.21
2022-11-05T07:30:42.038Z,83.55
2022-11-05T07:33:44.271Z,83.61
2022-11-05T07:36:46.852Z,83.20
2022-11-05T07:39:49.037Z,83.43
2022-11-05T07:42:53.616Z,83.37
2022-11-05T07:45:55.874Z,83.11
2022-11-05T07:48:58.414Z,82.97
2022-11-05T07:52:00.604Z,83.00
2022-11-05T07:55:03.232Z,83.07
2022-11-05T07:58:05.487Z,82.41
2022-11-05T08:01:08.074Z,82.20
2022-11-05T08:04:10.657Z,82.48
2022-11-05T08:07:12.866Z,82.46
2022-11-05T08:10:15.391Z,81.99
2022-11-05T08:13:18.366Z,81.62
2022-11-05T08:16:20.839Z,81.47
2022-11-05T08:19:23.143Z,81.95
2022-11-05T08:22:25.592Z,80.97
2022-11-05T08:25:28.294Z,81.03
2022-11-05T08:28:31.073Z,80.93
2022-11-05T08:31:33.371Z,80.15
2022-11-05T08:34:35.910Z,80.27
2022-11-05T08:37:38.129Z,79.89
2022-11-05T08:40:41.912Z,79.84
2022-11-05T08:43:44.152Z,80.07
2022-11-05T08:46:46.708Z,79.38
2022-11-05T08:49:49.145Z,79.19
2022-11-05T08:52:51.664Z,78.75
2022-11-05T08:55:58.298Z,78.70
2022-11-05T08:59:01.110Z,78.42
2022-11-05T09:02:03.489Z,78.30
2022-11-05T09:05:06.399Z,78.14
2022-11-05T09:08:11.398Z,78.26
2022-11-05T09:11:14.487Z,79.01
2022-11-05T09:14:16.678Z,77.97
2022-11-05T09:17:21.541Z,78.49
2022-11-05T09:20:25.168Z,78.87
2022-11-05T09:23:27.660Z,78.19
2022-11-05T09:26:30.021Z,77.79
2022-11-05T09:29:32.542Z,77.73
2022-11-05T09:32:34.818Z,77.92
2022-11-05T09:35:41.631Z,77.25
2022-11-05T09:38:43.804Z,76.67
2022-11-05T09:41:46.954Z,76.97
2022-11-05T09:44:59.502Z,76.68
2022-11-05T09:48:10.719Z,76.67
2022-11-05T09:51:20.834Z,76.70
2022-11-05T09:54:33.503Z,76.19
2022-11-05T09:57:48.286Z,76.68
2022-11-05T10:00:52.870Z,76.14
2022-11-05T10:03:59.410Z,76.05
2022-11-05T10:07:05.973Z,76.35
2022-11-05T10:10:23.188Z,76.20
2022-11-05T10:13:35.269Z,75.92
2022-11-05T10:16:42.352Z,75.48
2022-11-05T10:19:51.028Z,75.68
2022-11-05T10:23:00.602Z,75.44
2022-11-05T10:26:08.173Z,75.48
2022-11-05T10:29:16.051Z,75.65
2022-11-05T10:32:37.469Z,75.97
2022-11-05T10:35:55.711Z,75.93
2022-11-05T10:39:10.240Z,75.42
2022-11-05T10:42:24.525Z,75.35
2022-11-05T10:45:41.216Z,74.95
2022-11-05T10:49:22.330Z,75.46
2022-11-05T10:52:36.646Z,75.54
2022-11-05T10:55:44.252Z,75.71
2022-11-05T10:58:55.367Z,75.55
2022-11-05T11:02:15.103Z,75.36
2022-11-05T11:05:39.243Z,75.06
2022-11-05T11:08:45.283Z,75.14
2022-11-05T11:11:56.034Z,75.23
2022-11-05T11:15:16.053Z,74.26
2022-11-05T11:18:27.912Z,74.07
2022-11-05T11:21:32.386Z,73.88
2022-11-05T11:24:40.129Z,73.94
2022-11-05T11:27:42.786Z,73.85
2022-11-05T11:31:01.204Z,73.29
2022-11-05T11:34:11.019Z,73.11
2022-11-05T11:37:27.154Z,72.73
2022-11-05T11:40:31.505Z,73.20
2022-11-05T11:43:37.535Z,72.78
2022-11-05T11:46:40.637Z,72.57
2022-11-05T11:49:47.277Z,72.39
2022-11-05T11:52:49.793Z,72.53
2022-11-05T11:55:55.173Z,72.32
2022-11-05T11:59:02.923Z,72.70
2022-11-05T12:02:50.114Z,72.93
2022-11-05T12:06:23.758Z,72.60
2022-11-05T12:09:31.840Z,72.92
2022-11-05T12:13:08.703Z,72.54
2022-11-05T12:16:22.250Z,73.33
2022-11-05T12:19:46.887Z,71.88
2022-11-05T12:23:13.757Z,71.82
2022-11-05T12:26:41.813Z,71.55
2022-11-05T12:30:20.711Z,70.99
2022-11-05T12:33:42.457Z,70.99
2022-11-05T12:37:10.453Z,71.17
2022-11-05T12:40:37.918Z,71.15
2022-11-05T12:44:17.042Z,71.02
2022-11-05T12:47:47.618Z,71.27
2022-11-05T12:51:09.657Z,71.33
2022-11-05T12:54:41.916Z,71.51
2022-11-05T12:57:47.726Z,71.48
2022-11-05T13:00:57.194Z,71.73
2022-11-05T13:04:06.654Z,71.71
2022-11-05T13:07:13.737Z,72.18
2022-11-05T13:10:39.059Z,71.78
2022-11-05T13:13:45.027Z,71.67
2022-11-05T13:16:56.492Z,71.86
2022-11-05T13:20:11.702Z,72.19
2022-11-05T13:23:26.102Z,71.91
2022-11-05T13:26:51.636Z,72.28
2022-11-05T13:30:01.842Z,72.19
2022-11-05T13:33:12.313Z,72.67
2022-11-05T13:36:39.910Z,72.24
2022-11-05T13:39:54.279Z,72.46
2022-11-05T13:43:28.121Z,72.25
2022-11-05T13:47:02.143Z,72.00
2022-11-05T13:50:41.179Z,72.05
2022-11-05T13:54:04.874Z,71.97
2022-11-05T13:57:29.834Z,72.13
2022-11-05T14:00:42.395Z,72.18
2022-11-05T14:03:48.394Z,72.53
2022-11-05T14:06:50.936Z,72.76
2022-11-05T14:10:00.791Z,72.99
2022-11-05T14:13:25.893Z,73.06
2022-11-05T14:16:48.152Z,73.50
2022-11-05T14:20:05.329Z,73.21
2022-11-05T14:23:23.269Z,73.08
2022-11-05T14:26:32.136Z,73.23
2022-11-05T14:29:46.142Z,73.16
2022-11-05T14:32:50.985Z,72.64
2022-11-05T14:36:22.268Z,72.54
2022-11-05T14:39:32.326Z,72.43
2022-11-05T14:42:34.954Z,72.45
2022-11-05T14:45:56.950Z,72.46
2022-11-05T14:49:09.073Z,72.28
2022-11-05T14:52:17.171Z,71.92
2022-11-05T14:55:41.225Z,72.03
2022-11-05T14:58:45.289Z,71.91
2022-11-05T15:01:47.786Z,71.95
2022-11-05T15:04:52.770Z,72.14
2022-11-05T15:07:59.180Z,71.99
2022-11-05T15:11:37.268Z,72.09
2022-11-05T15:14:54.056Z,72.40
2022-11-05T15:18:30.555Z,72.08
2022-11-05T15:21:36.386Z,72.43
2022-11-05T15:24:41.625Z,72.61
2022-11-05T15:27:56.539Z,72.54
2022-11-05T15:31:14.140Z,72.52
2022-11-05T15:34:31.033Z,73.41
2022-11-05T15:37:33.922Z,73.76
2022-11-05T15:40:36.436Z,74.60
2022-11-05T15:43:48.070Z,74.54
2022-11-05T15:47:12.178Z,74.92
2022-11-05T15:50:16.063Z,75.08
2022-11-05T15:53:47.464Z,75.20
2022-11-05T15:56:54.676Z,74.75
2022-11-05T15:59:57.309Z,74.87
2022-11-05T16:03:04.816Z,74.66
2022-11-05T16:06:09.564Z,74.98
2022-11-05T16:09:40.647Z,74.07
2022-11-05T16:12:43.176Z,74.53
2022-11-05T16:15:54.396Z,74.42
2022-11-05T16:18:57.044Z,74.95
2022-11-05T16:22:03.757Z,75.13
2022-11-05T16:25:30.256Z,75.28
2022-11-05T16:28:32.571Z,75.74
2022-11-05T16:31:35.813Z,76.18
2022-11-05T16:34:41.803Z,76.80
2022-11-05T16:37:49.193Z,77.20
2022-11-05T16:40:54.062Z,76.94
2022-11-05T16:43:59.608Z,77.38
2022-11-05T16:47:01.953Z,78.03
2022-11-05T16:50:18.473Z,77.95
2022-11-05T16:53:20.810Z,77.92
2022-11-05T16:56:23.553Z,78.26
2022-11-05T16:59:25.853Z,78.95
2022-11-05T17:02:28.813Z,79.45
2022-11-05T17:05:31.426Z,79.28
2022-11-05T17:08:33.972Z,80.45
2022-11-05T17:11:36.272Z,80.28
2022-11-05T17:14:39.220Z,81.10
2022-11-05T17:17:41.407Z,80.69
2022-11-05T17:20:52.060Z,81.74
2022-11-05T17:23:54.362Z,81.22
2022-11-05T17:26:56.849Z,81.84
2022-11-05T17:29:59.099Z,82.41
2022-11-05T17:33:01.808Z,82.98
2022-11-05T17:36:14.353Z,83.25
2022-11-05T17:39:17.098Z,83.28
2022-11-05T17:42:19.318Z,83.80
2022-11-05T17:45:21.845Z,83.58
2022-11-05T17:48:24.089Z,83.90
2022-11-05T17:51:26.670Z,83.91
2022-11-05T17:54:28.923Z,84.14
2022-11-05T17:57:31.561Z,84.19
2022-11-05T18:00:33.858Z,84.21
2022-11-05T18:03:36.334Z,84.42
2022-11-05T18:06:39.812Z,85.27
2022-11-05T18:09:42.341Z,84.95
2022-11-05T18:12:44.814Z,85.63
2022-11-05T18:15:49.841Z,85.64
2022-11-05T18:18:52.180Z,85.66
2022-11-05T18:21:55.613Z,85.78
2022-11-05T18:24:57.876Z,86.10
2022-11-05T18:28:01.592Z,86.17
2022-11-05T18:31:08.274Z,86.48
2022-11-05T18:34:11.052Z,86.73
2022-11-05T18:37:13.316Z,86.94
2022-11-05T18:40:15.833Z,86.89
2022-11-05T18:43:18.097Z,86.99
2022-11-05T18:46:51.236Z,87.51
2022-11-05T18:49:42.906Z,87.41
2022-11-05T18:52:45.462Z,87.88
2022-11-05T18:55:47.751Z,87.97
2022-11-05T18:59:03.313Z,87.96
2022-11-05T19:02:15.247Z,88.37
2022-11-05T19:05:33.445Z,88.43
2022-11-05T19:08:35.881Z,88.68
2022-11-05T19:11:39.665Z,88.76
2022-11-05T19:14:44.564Z,88.82
2022-11-05T19:17:47.071Z,89.26
2022-11-05T19:20:49.334Z,89.64
2022-11-05T19:23:52.782Z,89.65
2022-11-05T19:26:54.994Z,89.73
2022-11-05T19:29:57.552Z,89.80
2022-11-05T19:32:59.786Z,90.01
2022-11-05T19:36:06.113Z,90.09
2022-11-05T19:39:11.020Z,90.25
2022-11-05T19:42:13.717Z,90.25
2022-11-05T19:45:38.766Z,90.38
2022-11-05T19:48:39.442Z,90.18
2022-11-05T19:51:41.730Z,90.08
2022-11-05T19:54:46.016Z,90.18
2022-11-05T19:57:48.291Z,90.16
2022-11-05T20:00:50.794Z,90.07
2022-11-05T20:03:54.808Z,90.13
2022-11-05T20:06:57.560Z,90.11
2022-11-05T20:10:00.075Z,90.04
2022-11-05T20:13:02.318Z,90.15
2022-11-05T20:16:05.604Z,90.26
2022-11-05T20:19:11.044Z,90.25
2022-11-05T20:22:13.591Z,90.17
2022-11-05T20:25:16.020Z,90.37
2022-11-05T20:28:18.541Z,90.41
2022-11-05T20:31:21.173Z,90.48
2022-11-05T20:34:24.409Z,90.69
2022-11-05T20:37:26.681Z,90.79
2022-11-05T20:40:29.263Z,90.84
2022-11-05T20:43:31.531Z,90.91
2022-11-05T20:46:34.178Z,91.16
2022-11-05T20:49:36.395Z,90.96
2022-11-05T20:52:39.073Z,90.59
2022-11-05T20:55:46.027Z,90.61
2022-11-05T20:58:49.210Z,90.53
2022-11-05T21:01:52.027Z,90.73
2022-11-05T21:04:54.698Z,90.54
2022-11-05T21:07:57.407Z,90.63
2022-11-05T21:11:00.647Z,90.47
2022-11-05T21:14:02.841Z,90.26
2022-11-05T21:17:09.745Z,90.08
2022-11-05T21:20:12.684Z,90.09
2022-11-05T21:23:16.218Z,90.23
2022-11-05T21:26:18.673Z,90.05
2022-11-05T21:29:21.221Z,90.04
2022-11-05T21:32:23.499Z,90.04
2022-11-05T21:35:26.082Z,90.00
2022-11-05T21:38:28.319Z,90.23
2022-11-05T21:41:30.920Z,90.31
2022-11-05T21:44:33.153Z,90.13
2022-11-05T21:47:35.600Z,90.42
2022-11-05T21:51:00.307Z,90.34
2022-11-05T21:54:21.310Z,90.30
2022-11-05T21:57:42.161Z,90.49
2022-11-05T22:00:44.707Z,90.59
2022-11-05T22:03:47.185Z,90.63
2022-11-05T22:06:49.387Z,90.62
2022-11-05T22:09:52.257Z,90.34
2022-11-05T22:12:54.539Z,90.46
2022-11-05T22:15:57.241Z,90.24
2022-11-05T22:18:59.854Z,90.34
2022-11-05T22:22:04.215Z,90.60
2022-11-05T22:25:06.708Z,90.36
2022-11-05T22:28:09.430Z,90.30
2022-11-05T22:31:16.303Z,90.10
2022-11-05T22:34:18.868Z,90.35
2022-11-05T22:37:21.105Z,89.97
2022-11-05T22:40:24.267Z,90.00
2022-11-05T22:43:26.643Z,90.34
2022-11-05T22:46:29.885Z,90.11
2022-11-05T22:49:33.103Z,89.97
2022-11-05T22:52:35.610Z,90.07
2022-11-05T22:55:40.625Z,90.01
2022-11-05T22:58:43.143Z,89.94
2022-11-05T23:01:46.464Z,89.82
2022-11-05T23:04:52.070Z,89.86
2022-11-05T23:08:13.178Z,89.73
2022-11-05T23:11:38.680Z,89.80
2022-11-05T23:14:40.958Z,89.82
2022-11-05T23:18:01.863Z,89.68
2022-11-05T23:21:23.268Z,89.84
2022-11-05T23:24:25.844Z,89.95
2022-11-05T23:27:30.029Z,90.03
2022-11-05T23:30:32.750Z,90.21
2022-11-05T23:33:35.645Z,89.80
2022-11-05T23:36:56.839Z,89.83
2022-11-05T23:39:59.083Z,90.09
2022-11-05T23:43:19.881Z,89.69
2022-11-05T23:46:40.764Z,89.97
2022-11-05T23:49:43.274Z,90.18
2022-11-05T23:52:45.520Z,89.97
2022-11-05T23:55:48.809Z,90.08
2022-11-05T23:58:51.100Z,90.30
